sensor_id;sensor_type;location;lat;lon;timestamp;P1;durP1;ratioP1;P2;durP2;ratioP2
73571;SDS011;61854;48.510;-2.770;2023-12-22T00:01:05;22.55;;;3.50;;
73571;SDS011;61854;48.510;-2.770;2023-12-22T00:03:31;25.17;;;3.83;;
73571;SDS011;61854;48.510;-2.770;2023-12-22T00:05:56;23.73;;;3.50;;
73571;SDS011;61854;48.510;-2.770;2023-12-22T00:08:22;21.77;;;3.42;;
73571;SDS011;61854;48.510;-2.770;2023-12-22T00:10:48;18.15;;;2.80;;
73571;SDS011;61854;48.510;-2.770;2023-12-22T00:13:14;27.00;;;3.75;;
73571;SDS011;61854;48.510;-2.770;2023-12-22T00:15:40;22.42;;;3.75;;
73571;SDS011;61854;48.510;-2.770;2023-12-22T00:18:07;18.00;;;4.20;;
73571;SDS011;61854;48.510;-2.770;2023-12-22T00:20:33;24.95;;;3.78;;
73571;SDS011;61854;48.510;-2.770;2023-12-22T00:22:58;27.25;;;3.85;;
73571;SDS011;61854;48.510;-2.770;2023-12-22T00:25:24;22.02;;;3.53;;
73571;SDS011;61854;48.510;-2.770;2023-12-22T00:27:50;25.70;;;3.80;;
73571;SDS011;61854;48.510;-2.770;2023-12-22T00:30:16;23.63;;;3.33;;
73571;SDS011;61854;48.510;-2.770;2023-12-22T00:32:42;24.17;;;3.90;;
73571;SDS011;61854;48.510;-2.770;2023-12-22T00:35:08;18.13;;;3.55;;
73571;SDS011;61854;48.510;-2.770;2023-12-22T00:37:33;25.40;;;3.60;;
73571;SDS011;61854;48.510;-2.770;2023-12-22T00:39:59;24.45;;;3.20;;
73571;SDS011;61854;48.510;-2.770;2023-12-22T00:42:25;24.58;;;3.25;;
73571;SDS011;61854;48.510;-2.770;2023-12-22T00:44:51;14.95;;;2.28;;
73571;SDS011;61854;48.510;-2.770;2023-12-22T00:47:17;14.45;;;2.72;;
73571;SDS011;61854;48.510;-2.770;2023-12-22T00:49:43;19.45;;;2.60;;
73571;SDS011;61854;48.510;-2.770;2023-12-22T00:52:09;17.52;;;2.42;;
73571;SDS011;61854;48.510;-2.770;2023-12-22T00:54:34;22.08;;;2.85;;
73571;SDS011;61854;48.510;-2.770;2023-12-22T00:57:00;21.75;;;2.67;;
73571;SDS011;61854;48.510;-2.770;2023-12-22T00:59:26;29.92;;;3.17;;
73571;SDS011;61854;48.510;-2.770;2023-12-22T01:01:51;17.15;;;2.67;;
73571;SDS011;61854;48.510;-2.770;2023-12-22T01:04:17;20.67;;;2.53;;
73571;SDS011;61854;48.510;-2.770;2023-12-22T01:06:42;21.20;;;3.28;;
73571;SDS011;61854;48.510;-2.770;2023-12-22T01:09:08;16.40;;;2.38;;
73571;SDS011;61854;48.510;-2.770;2023-12-22T01:11:34;23.98;;;2.72;;
73571;SDS011;61854;48.510;-2.770;2023-12-22T01:14:00;22.35;;;2.92;;
73571;SDS011;61854;48.510;-2.770;2023-12-22T01:16:25;20.20;;;2.85;;
73571;SDS011;61854;48.510;-2.770;2023-12-22T01:18:51;15.45;;;2.30;;
73571;SDS011;61854;48.510;-2.770;2023-12-22T01:23:45;19.05;;;2.05;;
73571;SDS011;61854;48.510;-2.770;2023-12-22T01:26:10;20.80;;;2.38;;
73571;SDS011;61854;48.510;-2.770;2023-12-22T01:28:36;15.70;;;2.33;;
73571;SDS011;61854;48.510;-2.770;2023-12-22T01:31:02;19.23;;;2.30;;
73571;SDS011;61854;48.510;-2.770;2023-12-22T01:33:27;13.38;;;2.15;;
73571;SDS011;61854;48.510;-2.770;2023-12-22T01:35:54;20.02;;;2.88;;
73571;SDS011;61854;48.510;-2.770;2023-12-22T01:38:20;15.07;;;2.20;;
73571;SDS011;61854;48.510;-2.770;2023-12-22T01:40:45;18.67;;;2.53;;
73571;SDS011;61854;48.510;-2.770;2023-12-22T01:43:11;18.52;;;2.50;;
73571;SDS011;61854;48.510;-2.770;2023-12-22T01:45:38;11.80;;;2.17;;
73571;SDS011;61854;48.510;-2.770;2023-12-22T01:48:04;16.85;;;2.40;;
73571;SDS011;61854;48.510;-2.770;2023-12-22T01:50:30;15.85;;;2.38;;
73571;SDS011;61854;48.510;-2.770;2023-12-22T01:52:56;17.98;;;2.60;;
73571;SDS011;61854;48.510;-2.770;2023-12-22T01:55:22;13.50;;;1.90;;
73571;SDS011;61854;48.510;-2.770;2023-12-22T01:57:48;10.93;;;2.15;;
73571;SDS011;61854;48.510;-2.770;2023-12-22T02:00:14;19.70;;;2.00;;
73571;SDS011;61854;48.510;-2.770;2023-12-22T02:02:41;10.07;;;1.95;;
73571;SDS011;61854;48.510;-2.770;2023-12-22T02:05:10;12.70;;;1.80;;
73571;SDS011;61854;48.510;-2.770;2023-12-22T02:10:07;10.95;;;1.35;;
73571;SDS011;61854;48.510;-2.770;2023-12-22T02:12:34;10.75;;;1.25;;
73571;SDS011;61854;48.510;-2.770;2023-12-22T02:15:00;8.10;;;1.25;;
73571;SDS011;61854;48.510;-2.770;2023-12-22T02:20:01;10.50;;;1.58;;
73571;SDS011;61854;48.510;-2.770;2023-12-22T02:22:29;9.82;;;1.10;;
73571;SDS011;61854;48.510;-2.770;2023-12-22T02:24:54;12.82;;;1.77;;
73571;SDS011;61854;48.510;-2.770;2023-12-22T02:30:14;9.20;;;1.75;;
73571;SDS011;61854;48.510;-2.770;2023-12-22T02:32:51;11.20;;;1.73;;
73571;SDS011;61854;48.510;-2.770;2023-12-22T02:35:21;11.10;;;1.67;;
73571;SDS011;61854;48.510;-2.770;2023-12-22T02:37:50;13.55;;;1.60;;
73571;SDS011;61854;48.510;-2.770;2023-12-22T02:40:17;18.25;;;2.00;;
73571;SDS011;61854;48.510;-2.770;2023-12-22T02:42:44;11.43;;;1.60;;
73571;SDS011;61854;48.510;-2.770;2023-12-22T02:45:17;14.35;;;1.85;;
73571;SDS011;61854;48.510;-2.770;2023-12-22T02:47:43;10.63;;;1.35;;
73571;SDS011;61854;48.510;-2.770;2023-12-22T02:50:10;14.70;;;1.42;;
73571;SDS011;61854;48.510;-2.770;2023-12-22T02:52:36;11.90;;;1.75;;
73571;SDS011;61854;48.510;-2.770;2023-12-22T02:55:02;12.95;;;2.22;;
73571;SDS011;61854;48.510;-2.770;2023-12-22T02:57:28;14.50;;;1.67;;
73571;SDS011;61854;48.510;-2.770;2023-12-22T02:59:54;10.10;;;1.52;;
73571;SDS011;61854;48.510;-2.770;2023-12-22T03:02:21;16.52;;;1.85;;
73571;SDS011;61854;48.510;-2.770;2023-12-22T03:04:46;11.48;;;1.63;;
73571;SDS011;61854;48.510;-2.770;2023-12-22T03:07:12;12.77;;;1.55;;
73571;SDS011;61854;48.510;-2.770;2023-12-22T03:09:39;12.95;;;1.70;;
73571;SDS011;61854;48.510;-2.770;2023-12-22T03:12:05;15.00;;;1.85;;
73571;SDS011;61854;48.510;-2.770;2023-12-22T03:14:35;12.00;;;1.80;;
73571;SDS011;61854;48.510;-2.770;2023-12-22T03:17:01;11.57;;;1.90;;
73571;SDS011;61854;48.510;-2.770;2023-12-22T03:19:28;16.88;;;1.98;;
73571;SDS011;61854;48.510;-2.770;2023-12-22T03:21:53;10.80;;;1.40;;
73571;SDS011;61854;48.510;-2.770;2023-12-22T03:24:21;9.80;;;1.37;;
73571;SDS011;61854;48.510;-2.770;2023-12-22T03:26:48;11.93;;;1.63;;
73571;SDS011;61854;48.510;-2.770;2023-12-22T03:29:14;10.05;;;1.42;;
73571;SDS011;61854;48.510;-2.770;2023-12-22T03:31:40;8.68;;;1.10;;
73571;SDS011;61854;48.510;-2.770;2023-12-22T03:34:05;11.65;;;1.70;;
73571;SDS011;61854;48.510;-2.770;2023-12-22T03:36:31;11.40;;;1.38;;
73571;SDS011;61854;48.510;-2.770;2023-12-22T03:38:57;6.53;;;1.05;;
73571;SDS011;61854;48.510;-2.770;2023-12-22T03:41:23;11.57;;;1.38;;
73571;SDS011;61854;48.510;-2.770;2023-12-22T03:43:49;10.48;;;1.33;;
73571;SDS011;61854;48.510;-2.770;2023-12-22T03:46:15;8.13;;;1.00;;
73571;SDS011;61854;48.510;-2.770;2023-12-22T03:48:40;6.15;;;1.13;;
73571;SDS011;61854;48.510;-2.770;2023-12-22T03:51:06;6.78;;;1.35;;
73571;SDS011;61854;48.510;-2.770;2023-12-22T03:53:32;11.73;;;1.40;;
73571;SDS011;61854;48.510;-2.770;2023-12-22T03:55:57;11.32;;;1.80;;
73571;SDS011;61854;48.510;-2.770;2023-12-22T03:58:23;16.65;;;1.58;;
73571;SDS011;61854;48.510;-2.770;2023-12-22T04:00:49;16.17;;;1.45;;
73571;SDS011;61854;48.510;-2.770;2023-12-22T04:03:15;13.25;;;1.70;;
73571;SDS011;61854;48.510;-2.770;2023-12-22T04:05:40;12.43;;;1.83;;
73571;SDS011;61854;48.510;-2.770;2023-12-22T04:08:06;14.02;;;1.60;;
73571;SDS011;61854;48.510;-2.770;2023-12-22T04:10:31;14.07;;;1.98;;
73571;SDS011;61854;48.510;-2.770;2023-12-22T04:12:57;14.45;;;1.65;;
73571;SDS011;61854;48.510;-2.770;2023-12-22T04:15:23;11.15;;;1.48;;
73571;SDS011;61854;48.510;-2.770;2023-12-22T04:17:48;6.40;;;0.93;;
73571;SDS011;61854;48.510;-2.770;2023-12-22T04:20:15;12.23;;;1.20;;
73571;SDS011;61854;48.510;-2.770;2023-12-22T04:22:41;12.82;;;1.70;;
73571;SDS011;61854;48.510;-2.770;2023-12-22T04:25:07;9.57;;;1.50;;
73571;SDS011;61854;48.510;-2.770;2023-12-22T04:27:33;14.63;;;1.73;;
73571;SDS011;61854;48.510;-2.770;2023-12-22T04:29:59;17.38;;;2.60;;
73571;SDS011;61854;48.510;-2.770;2023-12-22T04:32:25;16.38;;;2.22;;
73571;SDS011;61854;48.510;-2.770;2023-12-22T04:34:50;13.68;;;2.65;;
73571;SDS011;61854;48.510;-2.770;2023-12-22T04:37:16;17.88;;;2.10;;
73571;SDS011;61854;48.510;-2.770;2023-12-22T04:39:41;19.17;;;2.72;;
73571;SDS011;61854;48.510;-2.770;2023-12-22T04:42:07;17.08;;;2.25;;
73571;SDS011;61854;48.510;-2.770;2023-12-22T04:44:33;15.60;;;2.53;;
73571;SDS011;61854;48.510;-2.770;2023-12-22T04:46:59;16.52;;;1.98;;
73571;SDS011;61854;48.510;-2.770;2023-12-22T04:49:24;16.77;;;1.98;;
73571;SDS011;61854;48.510;-2.770;2023-12-22T04:51:50;14.77;;;2.20;;
73571;SDS011;61854;48.510;-2.770;2023-12-22T04:54:15;15.18;;;1.83;;
73571;SDS011;61854;48.510;-2.770;2023-12-22T04:56:41;14.93;;;1.42;;
73571;SDS011;61854;48.510;-2.770;2023-12-22T04:59:07;14.20;;;1.40;;
73571;SDS011;61854;48.510;-2.770;2023-12-22T05:01:33;9.73;;;1.50;;
73571;SDS011;61854;48.510;-2.770;2023-12-22T05:03:58;12.52;;;1.63;;
73571;SDS011;61854;48.510;-2.770;2023-12-22T05:06:24;9.43;;;1.85;;
73571;SDS011;61854;48.510;-2.770;2023-12-22T05:08:49;11.63;;;1.60;;
73571;SDS011;61854;48.510;-2.770;2023-12-22T05:11:15;6.68;;;1.27;;
73571;SDS011;61854;48.510;-2.770;2023-12-22T05:13:41;11.18;;;1.65;;
73571;SDS011;61854;48.510;-2.770;2023-12-22T05:16:08;20.52;;;2.25;;
73571;SDS011;61854;48.510;-2.770;2023-12-22T05:18:33;12.93;;;1.67;;
73571;SDS011;61854;48.510;-2.770;2023-12-22T05:20:59;9.63;;;1.60;;
73571;SDS011;61854;48.510;-2.770;2023-12-22T05:23:25;17.23;;;2.05;;
73571;SDS011;61854;48.510;-2.770;2023-12-22T05:25:50;11.00;;;1.40;;
73571;SDS011;61854;48.510;-2.770;2023-12-22T05:28:16;21.75;;;2.75;;
73571;SDS011;61854;48.510;-2.770;2023-12-22T05:30:42;19.20;;;2.58;;
73571;SDS011;61854;48.510;-2.770;2023-12-22T05:33:08;19.65;;;3.65;;
73571;SDS011;61854;48.510;-2.770;2023-12-22T05:35:33;17.10;;;2.17;;
73571;SDS011;61854;48.510;-2.770;2023-12-22T05:37:59;18.55;;;2.22;;
73571;SDS011;61854;48.510;-2.770;2023-12-22T05:40:24;19.02;;;1.95;;
73571;SDS011;61854;48.510;-2.770;2023-12-22T05:42:50;17.27;;;2.17;;
73571;SDS011;61854;48.510;-2.770;2023-12-22T05:45:15;22.90;;;2.28;;
73571;SDS011;61854;48.510;-2.770;2023-12-22T05:47:41;13.20;;;2.35;;
73571;SDS011;61854;48.510;-2.770;2023-12-22T05:50:07;19.90;;;2.17;;
73571;SDS011;61854;48.510;-2.770;2023-12-22T05:52:33;12.40;;;2.00;;
73571;SDS011;61854;48.510;-2.770;2023-12-22T05:54:59;25.08;;;3.03;;
73571;SDS011;61854;48.510;-2.770;2023-12-22T05:57:25;15.98;;;2.58;;
73571;SDS011;61854;48.510;-2.770;2023-12-22T05:59:51;19.98;;;2.83;;
73571;SDS011;61854;48.510;-2.770;2023-12-22T06:02:16;21.20;;;3.15;;
73571;SDS011;61854;48.510;-2.770;2023-12-22T06:04:42;22.08;;;3.45;;
73571;SDS011;61854;48.510;-2.770;2023-12-22T06:07:09;24.38;;;2.78;;
73571;SDS011;61854;48.510;-2.770;2023-12-22T06:09:35;23.63;;;3.45;;
73571;SDS011;61854;48.510;-2.770;2023-12-22T06:12:01;23.45;;;4.40;;
73571;SDS011;61854;48.510;-2.770;2023-12-22T06:14:26;30.45;;;3.97;;
73571;SDS011;61854;48.510;-2.770;2023-12-22T06:16:52;21.45;;;3.13;;
73571;SDS011;61854;48.510;-2.770;2023-12-22T06:19:18;28.95;;;3.42;;
73571;SDS011;61854;48.510;-2.770;2023-12-22T06:21:44;25.90;;;3.80;;
73571;SDS011;61854;48.510;-2.770;2023-12-22T06:24:10;17.48;;;3.05;;
73571;SDS011;61854;48.510;-2.770;2023-12-22T06:26:35;27.90;;;3.47;;
73571;SDS011;61854;48.510;-2.770;2023-12-22T06:29:01;25.35;;;4.75;;
73571;SDS011;61854;48.510;-2.770;2023-12-22T06:31:28;29.45;;;3.70;;
73571;SDS011;61854;48.510;-2.770;2023-12-22T06:33:54;33.65;;;4.40;;
73571;SDS011;61854;48.510;-2.770;2023-12-22T06:36:23;31.73;;;4.07;;
73571;SDS011;61854;48.510;-2.770;2023-12-22T06:38:50;22.85;;;3.30;;
73571;SDS011;61854;48.510;-2.770;2023-12-22T06:41:25;25.38;;;3.33;;
73571;SDS011;61854;48.510;-2.770;2023-12-22T06:43:52;29.55;;;3.58;;
73571;SDS011;61854;48.510;-2.770;2023-12-22T06:46:18;21.52;;;3.78;;
73571;SDS011;61854;48.510;-2.770;2023-12-22T06:48:45;35.25;;;4.75;;
73571;SDS011;61854;48.510;-2.770;2023-12-22T06:51:20;29.98;;;3.58;;
73571;SDS011;61854;48.510;-2.770;2023-12-22T06:53:47;31.15;;;4.10;;
73571;SDS011;61854;48.510;-2.770;2023-12-22T06:56:14;29.48;;;3.63;;
73571;SDS011;61854;48.510;-2.770;2023-12-22T06:58:50;32.10;;;3.75;;
73571;SDS011;61854;48.510;-2.770;2023-12-22T07:01:21;14.60;;;1.83;;
73571;SDS011;61854;48.510;-2.770;2023-12-22T07:03:49;26.67;;;3.03;;
73571;SDS011;61854;48.510;-2.770;2023-12-22T07:06:15;17.48;;;2.90;;
73571;SDS011;61854;48.510;-2.770;2023-12-22T07:08:42;27.83;;;3.95;;
73571;SDS011;61854;48.510;-2.770;2023-12-22T07:11:08;26.63;;;3.35;;
73571;SDS011;61854;48.510;-2.770;2023-12-22T07:13:37;40.40;;;4.57;;
73571;SDS011;61854;48.510;-2.770;2023-12-22T07:16:03;32.45;;;4.40;;
73571;SDS011;61854;48.510;-2.770;2023-12-22T07:18:30;45.72;;;5.05;;
73571;SDS011;61854;48.510;-2.770;2023-12-22T07:20:56;39.50;;;5.13;;
73571;SDS011;61854;48.510;-2.770;2023-12-22T07:23:25;35.50;;;5.18;;
73571;SDS011;61854;48.510;-2.770;2023-12-22T07:25:50;43.80;;;5.50;;
73571;SDS011;61854;48.510;-2.770;2023-12-22T07:28:16;31.15;;;5.05;;
73571;SDS011;61854;48.510;-2.770;2023-12-22T07:30:42;28.75;;;4.15;;
73571;SDS011;61854;48.510;-2.770;2023-12-22T07:33:07;42.47;;;4.65;;
73571;SDS011;61854;48.510;-2.770;2023-12-22T07:35:33;34.30;;;4.82;;
73571;SDS011;61854;48.510;-2.770;2023-12-22T07:37:59;31.88;;;5.07;;
73571;SDS011;61854;48.510;-2.770;2023-12-22T07:40:25;42.83;;;4.90;;
73571;SDS011;61854;48.510;-2.770;2023-12-22T07:42:54;32.55;;;4.70;;
73571;SDS011;61854;48.510;-2.770;2023-12-22T07:45:19;29.33;;;5.10;;
73571;SDS011;61854;48.510;-2.770;2023-12-22T07:47:45;34.40;;;5.20;;
73571;SDS011;61854;48.510;-2.770;2023-12-22T07:50:11;27.08;;;4.18;;
73571;SDS011;61854;48.510;-2.770;2023-12-22T07:52:37;33.05;;;4.28;;
73571;SDS011;61854;48.510;-2.770;2023-12-22T07:55:07;36.53;;;5.28;;
73571;SDS011;61854;48.510;-2.770;2023-12-22T07:57:36;37.30;;;5.07;;
73571;SDS011;61854;48.510;-2.770;2023-12-22T08:00:04;34.55;;;4.47;;
73571;SDS011;61854;48.510;-2.770;2023-12-22T08:02:30;30.35;;;4.55;;
73571;SDS011;61854;48.510;-2.770;2023-12-22T08:04:56;25.98;;;4.65;;
73571;SDS011;61854;48.510;-2.770;2023-12-22T08:07:22;33.83;;;4.53;;
73571;SDS011;61854;48.510;-2.770;2023-12-22T08:09:47;35.90;;;5.22;;
73571;SDS011;61854;48.510;-2.770;2023-12-22T08:12:13;25.52;;;4.40;;
73571;SDS011;61854;48.510;-2.770;2023-12-22T08:14:39;37.47;;;4.30;;
73571;SDS011;61854;48.510;-2.770;2023-12-22T08:17:04;31.88;;;4.93;;
73571;SDS011;61854;48.510;-2.770;2023-12-22T08:19:30;43.13;;;5.75;;
73571;SDS011;61854;48.510;-2.770;2023-12-22T08:21:55;28.70;;;3.80;;
73571;SDS011;61854;48.510;-2.770;2023-12-22T08:24:21;28.88;;;3.90;;
73571;SDS011;61854;48.510;-2.770;2023-12-22T08:26:47;33.67;;;4.60;;
73571;SDS011;61854;48.510;-2.770;2023-12-22T08:29:13;23.35;;;3.47;;
73571;SDS011;61854;48.510;-2.770;2023-12-22T08:31:39;31.08;;;4.53;;
73571;SDS011;61854;48.510;-2.770;2023-12-22T08:34:04;29.77;;;4.82;;
73571;SDS011;61854;48.510;-2.770;2023-12-22T08:36:30;28.08;;;4.13;;
73571;SDS011;61854;48.510;-2.770;2023-12-22T08:38:57;31.67;;;4.85;;
73571;SDS011;61854;48.510;-2.770;2023-12-22T08:41:22;25.52;;;3.80;;
73571;SDS011;61854;48.510;-2.770;2023-12-22T08:43:48;39.17;;;4.78;;
73571;SDS011;61854;48.510;-2.770;2023-12-22T08:46:14;46.03;;;5.95;;
73571;SDS011;61854;48.510;-2.770;2023-12-22T08:48:40;28.77;;;4.10;;
73571;SDS011;61854;48.510;-2.770;2023-12-22T08:51:05;27.00;;;4.15;;
73571;SDS011;61854;48.510;-2.770;2023-12-22T08:53:32;31.38;;;4.70;;
73571;SDS011;61854;48.510;-2.770;2023-12-22T08:56:01;36.47;;;5.10;;
73571;SDS011;61854;48.510;-2.770;2023-12-22T08:58:27;16.13;;;3.15;;
73571;SDS011;61854;48.510;-2.770;2023-12-22T09:00:54;36.63;;;5.28;;
73571;SDS011;61854;48.510;-2.770;2023-12-22T09:03:19;24.38;;;4.00;;
73571;SDS011;61854;48.510;-2.770;2023-12-22T09:05:45;31.00;;;4.93;;
73571;SDS011;61854;48.510;-2.770;2023-12-22T09:08:12;39.55;;;5.10;;
73571;SDS011;61854;48.510;-2.770;2023-12-22T09:10:38;27.90;;;3.65;;
73571;SDS011;61854;48.510;-2.770;2023-12-22T09:13:04;32.60;;;4.95;;
73571;SDS011;61854;48.510;-2.770;2023-12-22T09:15:29;25.52;;;3.70;;
73571;SDS011;61854;48.510;-2.770;2023-12-22T09:17:55;29.55;;;3.83;;
73571;SDS011;61854;48.510;-2.770;2023-12-22T09:20:21;28.30;;;4.78;;
73571;SDS011;61854;48.510;-2.770;2023-12-22T09:22:47;24.95;;;4.50;;
73571;SDS011;61854;48.510;-2.770;2023-12-22T09:25:13;20.65;;;3.67;;
73571;SDS011;61854;48.510;-2.770;2023-12-22T09:27:39;29.75;;;5.03;;
73571;SDS011;61854;48.510;-2.770;2023-12-22T09:30:05;29.50;;;3.55;;
73571;SDS011;61854;48.510;-2.770;2023-12-22T09:32:33;25.50;;;3.47;;
73571;SDS011;61854;48.510;-2.770;2023-12-22T09:34:59;22.30;;;3.30;;
73571;SDS011;61854;48.510;-2.770;2023-12-22T09:37:26;22.50;;;3.65;;
73571;SDS011;61854;48.510;-2.770;2023-12-22T09:39:52;25.35;;;3.53;;
73571;SDS011;61854;48.510;-2.770;2023-12-22T09:42:18;20.25;;;3.28;;
73571;SDS011;61854;48.510;-2.770;2023-12-22T09:44:46;14.07;;;2.95;;
73571;SDS011;61854;48.510;-2.770;2023-12-22T09:47:14;20.80;;;3.30;;
73571;SDS011;61854;48.510;-2.770;2023-12-22T09:49:42;29.40;;;4.05;;
73571;SDS011;61854;48.510;-2.770;2023-12-22T09:52:09;20.50;;;3.17;;
73571;SDS011;61854;48.510;-2.770;2023-12-22T09:54:36;27.75;;;3.40;;
73571;SDS011;61854;48.510;-2.770;2023-12-22T09:57:02;20.85;;;2.97;;
73571;SDS011;61854;48.510;-2.770;2023-12-22T09:59:29;19.27;;;3.42;;
73571;SDS011;61854;48.510;-2.770;2023-12-22T10:01:56;24.55;;;3.63;;
73571;SDS011;61854;48.510;-2.770;2023-12-22T10:04:24;16.13;;;2.67;;
73571;SDS011;61854;48.510;-2.770;2023-12-22T10:06:49;15.95;;;3.03;;
73571;SDS011;61854;48.510;-2.770;2023-12-22T10:09:16;23.63;;;3.53;;
73571;SDS011;61854;48.510;-2.770;2023-12-22T10:11:43;24.00;;;4.13;;
73571;SDS011;61854;48.510;-2.770;2023-12-22T10:14:09;16.08;;;2.67;;
73571;SDS011;61854;48.510;-2.770;2023-12-22T10:16:36;18.15;;;2.63;;
73571;SDS011;61854;48.510;-2.770;2023-12-22T10:19:03;22.08;;;3.08;;
73571;SDS011;61854;48.510;-2.770;2023-12-22T10:21:28;16.13;;;2.65;;
73571;SDS011;61854;48.510;-2.770;2023-12-22T10:23:56;20.88;;;3.55;;
73571;SDS011;61854;48.510;-2.770;2023-12-22T10:26:22;16.52;;;2.47;;
73571;SDS011;61854;48.510;-2.770;2023-12-22T10:28:48;21.23;;;3.35;;
73571;SDS011;61854;48.510;-2.770;2023-12-22T10:31:17;26.90;;;3.38;;
73571;SDS011;61854;48.510;-2.770;2023-12-22T10:33:43;11.85;;;2.03;;
73571;SDS011;61854;48.510;-2.770;2023-12-22T10:36:09;17.08;;;2.58;;
73571;SDS011;61854;48.510;-2.770;2023-12-22T10:38:35;23.75;;;3.53;;
73571;SDS011;61854;48.510;-2.770;2023-12-22T10:41:05;24.83;;;3.33;;
73571;SDS011;61854;48.510;-2.770;2023-12-22T10:43:38;24.73;;;4.15;;
73571;SDS011;61854;48.510;-2.770;2023-12-22T10:46:04;28.60;;;3.80;;
73571;SDS011;61854;48.510;-2.770;2023-12-22T10:48:30;19.92;;;3.10;;
73571;SDS011;61854;48.510;-2.770;2023-12-22T10:50:56;24.10;;;3.72;;
73571;SDS011;61854;48.510;-2.770;2023-12-22T10:53:22;17.27;;;2.30;;
73571;SDS011;61854;48.510;-2.770;2023-12-22T10:55:49;16.08;;;2.78;;
73571;SDS011;61854;48.510;-2.770;2023-12-22T10:58:15;15.80;;;2.58;;
73571;SDS011;61854;48.510;-2.770;2023-12-22T11:00:41;16.73;;;2.83;;
73571;SDS011;61854;48.510;-2.770;2023-12-22T11:03:10;16.08;;;2.22;;
73571;SDS011;61854;48.510;-2.770;2023-12-22T11:05:43;15.43;;;2.55;;
73571;SDS011;61854;48.510;-2.770;2023-12-22T11:08:11;15.00;;;2.35;;
73571;SDS011;61854;48.510;-2.770;2023-12-22T11:10:37;19.83;;;2.35;;
73571;SDS011;61854;48.510;-2.770;2023-12-22T11:13:08;17.73;;;2.90;;
73571;SDS011;61854;48.510;-2.770;2023-12-22T11:15:34;23.83;;;2.72;;
73571;SDS011;61854;48.510;-2.770;2023-12-22T11:18:01;14.02;;;2.10;;
73571;SDS011;61854;48.510;-2.770;2023-12-22T11:20:27;14.25;;;2.13;;
73571;SDS011;61854;48.510;-2.770;2023-12-22T11:22:57;12.48;;;2.00;;
73571;SDS011;61854;48.510;-2.770;2023-12-22T11:25:25;15.07;;;2.05;;
73571;SDS011;61854;48.510;-2.770;2023-12-22T11:27:51;10.88;;;1.80;;
73571;SDS011;61854;48.510;-2.770;2023-12-22T11:30:20;9.93;;;1.70;;
73571;SDS011;61854;48.510;-2.770;2023-12-22T11:32:49;9.53;;;2.00;;
73571;SDS011;61854;48.510;-2.770;2023-12-22T11:35:15;13.75;;;1.92;;
73571;SDS011;61854;48.510;-2.770;2023-12-22T11:37:42;12.27;;;2.25;;
73571;SDS011;61854;48.510;-2.770;2023-12-22T11:40:08;17.60;;;2.35;;
73571;SDS011;61854;48.510;-2.770;2023-12-22T11:42:36;10.38;;;2.08;;
73571;SDS011;61854;48.510;-2.770;2023-12-22T11:45:09;15.20;;;2.60;;
73571;SDS011;61854;48.510;-2.770;2023-12-22T11:50:01;13.05;;;2.38;;
73571;SDS011;61854;48.510;-2.770;2023-12-22T11:52:27;16.80;;;2.50;;
73571;SDS011;61854;48.510;-2.770;2023-12-22T11:54:53;18.27;;;2.90;;
73571;SDS011;61854;48.510;-2.770;2023-12-22T12:00:06;18.23;;;2.70;;
73571;SDS011;61854;48.510;-2.770;2023-12-22T12:02:33;20.42;;;2.70;;
73571;SDS011;61854;48.510;-2.770;2023-12-22T12:05:00;19.10;;;3.17;;
73571;SDS011;61854;48.510;-2.770;2023-12-22T12:10:07;13.93;;;2.15;;
73571;SDS011;61854;48.510;-2.770;2023-12-22T12:12:33;11.48;;;2.20;;
73571;SDS011;61854;48.510;-2.770;2023-12-22T12:15:05;17.02;;;2.15;;
73571;SDS011;61854;48.510;-2.770;2023-12-22T12:17:33;11.88;;;2.40;;
73571;SDS011;61854;48.510;-2.770;2023-12-22T12:20:02;15.43;;;2.15;;
73571;SDS011;61854;48.510;-2.770;2023-12-22T12:22:31;15.63;;;2.53;;
73571;SDS011;61854;48.510;-2.770;2023-12-22T12:24:57;13.63;;;2.22;;
73571;SDS011;61854;48.510;-2.770;2023-12-22T12:27:23;19.90;;;2.13;;
73571;SDS011;61854;48.510;-2.770;2023-12-22T12:29:49;14.48;;;2.40;;
73571;SDS011;61854;48.510;-2.770;2023-12-22T12:32:15;16.25;;;2.35;;
73571;SDS011;61854;48.510;-2.770;2023-12-22T12:34:45;12.43;;;2.25;;
73571;SDS011;61854;48.510;-2.770;2023-12-22T12:37:12;14.95;;;2.50;;
73571;SDS011;61854;48.510;-2.770;2023-12-22T12:39:37;17.42;;;2.05;;
73571;SDS011;61854;48.510;-2.770;2023-12-22T12:42:06;16.08;;;2.17;;
73571;SDS011;61854;48.510;-2.770;2023-12-22T12:44:33;12.98;;;2.10;;
73571;SDS011;61854;48.510;-2.770;2023-12-22T12:47:00;15.23;;;2.60;;
73571;SDS011;61854;48.510;-2.770;2023-12-22T12:49:36;14.05;;;2.28;;
73571;SDS011;61854;48.510;-2.770;2023-12-22T12:52:02;14.48;;;2.42;;
73571;SDS011;61854;48.510;-2.770;2023-12-22T12:54:28;20.00;;;2.53;;
73571;SDS011;61854;48.510;-2.770;2023-12-22T12:56:54;16.13;;;2.33;;
73571;SDS011;61854;48.510;-2.770;2023-12-22T12:59:19;13.32;;;2.00;;
73571;SDS011;61854;48.510;-2.770;2023-12-22T13:01:46;13.48;;;2.10;;
73571;SDS011;61854;48.510;-2.770;2023-12-22T13:04:13;10.85;;;2.25;;
73571;SDS011;61854;48.510;-2.770;2023-12-22T13:06:43;11.57;;;1.98;;
73571;SDS011;61854;48.510;-2.770;2023-12-22T13:09:09;17.33;;;2.25;;
73571;SDS011;61854;48.510;-2.770;2023-12-22T13:11:35;18.23;;;2.17;;
73571;SDS011;61854;48.510;-2.770;2023-12-22T13:14:02;11.95;;;1.50;;
73571;SDS011;61854;48.510;-2.770;2023-12-22T13:16:28;8.50;;;0.90;;
73571;SDS011;61854;48.510;-2.770;2023-12-22T13:18:57;12.02;;;1.58;;
73571;SDS011;61854;48.510;-2.770;2023-12-22T13:21:24;7.72;;;1.75;;
73571;SDS011;61854;48.510;-2.770;2023-12-22T13:26:38;4.97;;;1.15;;
73571;SDS011;61854;48.510;-2.770;2023-12-22T13:29:08;5.90;;;1.17;;
73571;SDS011;61854;48.510;-2.770;2023-12-22T13:31:39;9.40;;;1.63;;
73571;SDS011;61854;48.510;-2.770;2023-12-22T13:34:12;7.85;;;1.33;;
73571;SDS011;61854;48.510;-2.770;2023-12-22T13:36:39;5.57;;;0.95;;
73571;SDS011;61854;48.510;-2.770;2023-12-22T13:39:07;3.58;;;1.10;;
73571;SDS011;61854;48.510;-2.770;2023-12-22T13:41:39;7.80;;;1.33;;
73571;SDS011;61854;48.510;-2.770;2023-12-22T13:44:07;6.53;;;1.05;;
73571;SDS011;61854;48.510;-2.770;2023-12-22T13:46:33;5.70;;;0.93;;
73571;SDS011;61854;48.510;-2.770;2023-12-22T13:49:00;7.00;;;1.65;;
73571;SDS011;61854;48.510;-2.770;2023-12-22T13:51:27;8.75;;;1.58;;
73571;SDS011;61854;48.510;-2.770;2023-12-22T13:54:03;8.07;;;1.05;;
73571;SDS011;61854;48.510;-2.770;2023-12-22T13:56:32;4.82;;;0.93;;
73571;SDS011;61854;48.510;-2.770;2023-12-22T13:59:02;9.65;;;1.25;;
73571;SDS011;61854;48.510;-2.770;2023-12-22T14:01:29;6.05;;;1.20;;
73571;SDS011;61854;48.510;-2.770;2023-12-22T14:03:54;7.78;;;1.50;;
73571;SDS011;61854;48.510;-2.770;2023-12-22T14:06:23;7.82;;;1.65;;
73571;SDS011;61854;48.510;-2.770;2023-12-22T14:08:49;6.65;;;1.27;;
73571;SDS011;61854;48.510;-2.770;2023-12-22T14:11:15;10.13;;;1.40;;
73571;SDS011;61854;48.510;-2.770;2023-12-22T14:13:40;7.55;;;1.38;;
73571;SDS011;61854;48.510;-2.770;2023-12-22T14:16:06;11.25;;;1.55;;
73571;SDS011;61854;48.510;-2.770;2023-12-22T14:18:32;10.32;;;1.83;;
73571;SDS011;61854;48.510;-2.770;2023-12-22T14:20:58;8.18;;;1.73;;
73571;SDS011;61854;48.510;-2.770;2023-12-22T14:23:26;8.52;;;1.20;;
73571;SDS011;61854;48.510;-2.770;2023-12-22T14:25:52;7.43;;;1.48;;
73571;SDS011;61854;48.510;-2.770;2023-12-22T14:28:18;10.75;;;2.28;;
73571;SDS011;61854;48.510;-2.770;2023-12-22T14:30:44;10.57;;;1.52;;
73571;SDS011;61854;48.510;-2.770;2023-12-22T14:33:10;10.95;;;1.75;;
73571;SDS011;61854;48.510;-2.770;2023-12-22T14:35:35;15.45;;;1.95;;
73571;SDS011;61854;48.510;-2.770;2023-12-22T14:38:01;8.60;;;1.55;;
73571;SDS011;61854;48.510;-2.770;2023-12-22T14:40:27;7.05;;;1.33;;